createdAt,value
2023-06-21T00:01:39.616Z,23.30
2023-06-21T00:04:07.733Z,23.30
2023-06-21T00:06:39.336Z,23.20
2023-06-21T00:09:09.332Z,23.20
2023-06-21T00:11:39.932Z,23.20
2023-06-21T00:14:08.368Z,23.10
2023-06-21T00:16:37.746Z,23.10
2023-06-21T00:19:07.356Z,23.10
2023-06-21T00:21:34.864Z,23.10
2023-06-21T00:24:06.274Z,23.00
2023-06-21T00:26:36.475Z,23.00
2023-06-21T00:29:06.452Z,23.00
2023-06-21T00:31:35.087Z,23.00
2023-06-21T00:34:03.364Z,22.90
2023-06-21T00:36:32.635Z,22.90
2023-06-21T00:39:00.322Z,22.90
2023-06-21T00:41:29.338Z,22.90
2023-06-21T00:43:59.511Z,22.80
2023-06-21T00:46:28.815Z,22.80
2023-06-21T00:48:57.140Z,22.80
2023-06-21T00:51:26.149Z,22.80
2023-06-21T00:53:56.296Z,22.80
2023-06-21T00:56:23.921Z,22.70
2023-06-21T00:58:57.801Z,22.70
2023-06-21T01:01:29.969Z,22.70
2023-06-21T01:03:59.001Z,22.70
2023-06-21T01:06:34.540Z,22.70
2023-06-21T01:09:14.886Z,22.70
2023-06-21T01:11:52.554Z,22.60
2023-06-21T01:14:37.719Z,22.60
2023-06-21T01:17:07.435Z,22.60
2023-06-21T01:19:42.721Z,22.60
2023-06-21T01:22:19.995Z,22.60
2023-06-21T01:24:58.109Z,22.60
2023-06-21T01:27:42.089Z,22.60
2023-06-21T01:30:12.212Z,22.50
2023-06-21T01:32:41.215Z,22.50
2023-06-21T01:35:12.211Z,22.50
2023-06-21T01:37:43.732Z,22.50
2023-06-21T01:40:12.803Z,22.50
2023-06-21T01:42:40.682Z,22.50
2023-06-21T01:45:11.127Z,22.50
2023-06-21T01:47:41.098Z,22.50
2023-06-21T01:50:12.086Z,22.50
2023-06-21T01:52:41.789Z,22.50
2023-06-21T01:55:11.340Z,22.50
2023-06-21T01:57:39.232Z,22.50
2023-06-21T02:00:18.566Z,22.50
2023-06-21T02:02:51.238Z,22.50
2023-06-21T02:05:19.553Z,22.40
2023-06-21T02:07:48.689Z,22.50
2023-06-21T02:10:16.768Z,22.40
2023-06-21T02:12:49.114Z,22.40
2023-06-21T02:15:20.656Z,22.40
2023-06-21T02:17:50.238Z,22.40
2023-06-21T02:20:19.105Z,22.40
2023-06-21T02:22:47.473Z,22.40
2023-06-21T02:25:16.306Z,22.40
2023-06-21T02:27:43.970Z,22.40
2023-06-21T02:30:13.725Z,22.30
2023-06-21T02:32:41.505Z,22.40
2023-06-21T02:35:13.110Z,22.40
2023-06-21T02:37:40.672Z,22.40
2023-06-21T02:40:14.620Z,22.40
2023-06-21T02:42:42.456Z,22.40
2023-06-21T02:45:10.980Z,22.40
2023-06-21T02:47:38.493Z,22.40
2023-06-21T02:50:07.367Z,22.40
2023-06-21T02:52:37.667Z,22.30
2023-06-21T02:55:06.048Z,22.30
2023-06-21T02:57:33.543Z,22.30
2023-06-21T03:00:01.278Z,22.30
2023-06-21T03:02:35.128Z,22.30
2023-06-21T03:05:02.866Z,22.30
2023-06-21T03:07:30.515Z,22.20
2023-06-21T03:09:59.522Z,22.20
2023-06-21T03:12:27.082Z,22.20
2023-06-21T03:14:54.734Z,22.20
2023-06-21T03:17:24.529Z,22.20
2023-06-21T03:19:52.055Z,22.20
2023-06-21T03:22:19.556Z,22.20
2023-06-21T03:24:47.517Z,22.20
2023-06-21T03:27:16.807Z,22.30
2023-06-21T03:29:44.925Z,22.20
2023-06-21T03:32:14.711Z,22.20
2023-06-21T03:34:42.924Z,22.20
2023-06-21T03:37:13.315Z,22.20
2023-06-21T03:39:42.178Z,22.10
2023-06-21T03:42:12.726Z,22.10
2023-06-21T03:44:44.121Z,22.10
2023-06-21T03:47:12.986Z,21.90
2023-06-21T03:49:45.235Z,21.90
2023-06-21T03:52:13.730Z,21.90
2023-06-21T03:54:41.391Z,21.90
2023-06-21T03:57:09.086Z,21.90
2023-06-21T03:59:37.588Z,21.90
2023-06-21T04:02:09.707Z,21.90
2023-06-21T04:04:37.509Z,21.90
2023-06-21T04:07:08.296Z,21.90
2023-06-21T04:09:35.928Z,21.90
2023-06-21T04:12:11.831Z,21.90
2023-06-21T04:14:42.775Z,21.90
2023-06-21T04:17:15.747Z,21.90
2023-06-21T04:19:43.650Z,21.90
2023-06-21T04:22:11.377Z,22.00
2023-06-21T04:24:39.780Z,21.90
2023-06-21T04:27:07.836Z,21.90
2023-06-21T04:29:37.720Z,21.90
2023-06-21T04:32:06.612Z,22.00
2023-06-21T04:34:37.515Z,22.00
2023-06-21T04:37:09.292Z,21.90
2023-06-21T04:39:36.994Z,21.90
2023-06-21T04:42:05.064Z,21.90
2023-06-21T04:44:35.136Z,21.90
2023-06-21T04:47:03.131Z,21.90
2023-06-21T04:49:31.783Z,22.00
2023-06-21T04:52:00.878Z,22.00
2023-06-21T04:54:30.355Z,22.00
2023-06-21T04:56:58.532Z,22.10
2023-06-21T04:59:26.195Z,22.10
2023-06-21T05:01:54.815Z,22.10
2023-06-21T05:04:22.306Z,22.20
2023-06-21T05:06:49.760Z,22.20
2023-06-21T05:09:20.469Z,22.20
2023-06-21T05:11:52.331Z,22.30
2023-06-21T05:14:19.917Z,22.30
2023-06-21T05:16:47.428Z,22.30
2023-06-21T05:19:15.641Z,22.40
2023-06-21T05:21:43.132Z,22.40
2023-06-21T05:24:10.729Z,22.40
2023-06-21T05:26:39.540Z,22.50
2023-06-21T05:29:07.000Z,22.50
2023-06-21T05:31:35.372Z,22.60
2023-06-21T05:34:03.233Z,22.60
2023-06-21T05:36:30.714Z,22.70
2023-06-21T05:38:58.280Z,22.80
2023-06-21T05:41:25.792Z,22.80
2023-06-21T05:43:54.894Z,22.90
2023-06-21T05:46:22.496Z,22.90
2023-06-21T05:48:50.068Z,22.90
2023-06-21T05:51:19.949Z,23.00
2023-06-21T05:53:54.759Z,23.00
2023-06-21T05:56:28.133Z,23.10
2023-06-21T05:58:59.759Z,23.10
2023-06-21T06:01:27.355Z,23.20
2023-06-21T06:03:57.060Z,23.20
2023-06-21T06:06:35.417Z,23.30
2023-06-21T06:09:05.775Z,23.30
2023-06-21T06:11:33.434Z,23.30
2023-06-21T06:14:04.809Z,23.30
2023-06-21T06:16:33.113Z,23.30
2023-06-21T06:19:01.487Z,23.40
2023-06-21T06:21:29.571Z,23.40
2023-06-21T06:24:02.083Z,23.50
2023-06-21T06:26:34.623Z,23.50
2023-06-21T06:29:06.360Z,23.50
2023-06-21T06:31:34.050Z,23.50
2023-06-21T06:34:06.502Z,23.60
2023-06-21T06:36:36.172Z,23.60
2023-06-21T06:39:10.356Z,23.60
2023-06-21T06:41:38.884Z,23.60
2023-06-21T06:44:11.362Z,23.70
2023-06-21T06:46:39.084Z,23.70
2023-06-21T06:49:09.190Z,23.80
2023-06-21T06:51:37.127Z,23.90
2023-06-21T06:54:05.983Z,24.00
2023-06-21T06:56:33.915Z,24.00
2023-06-21T06:59:09.217Z,24.10
2023-06-21T07:01:40.753Z,24.10
2023-06-21T07:04:09.969Z,24.20
2023-06-21T07:06:46.384Z,24.30
2023-06-21T07:09:14.817Z,24.30
2023-06-21T07:11:44.157Z,24.40
2023-06-21T07:14:13.257Z,24.40
2023-06-21T07:16:43.348Z,24.50
2023-06-21T07:19:13.862Z,24.50
2023-06-21T07:21:44.459Z,24.50
2023-06-21T07:24:15.220Z,24.60
2023-06-21T07:26:43.054Z,24.60
2023-06-21T07:29:10.789Z,24.80
2023-06-21T07:31:38.909Z,24.70
2023-06-21T07:34:10.647Z,24.80
2023-06-21T07:36:41.923Z,24.80
2023-06-21T07:39:10.248Z,24.90
2023-06-21T07:41:39.794Z,24.90
2023-06-21T07:44:09.512Z,24.90
2023-06-21T07:46:37.612Z,24.90
2023-06-21T07:49:07.180Z,25.00
2023-06-21T07:51:39.621Z,25.00
2023-06-21T07:54:09.229Z,25.00
2023-06-21T07:56:39.637Z,24.90
2023-06-21T07:59:07.286Z,25.00
2023-06-21T08:01:38.485Z,25.00
2023-06-21T08:04:06.174Z,25.10
2023-06-21T08:06:37.595Z,25.10
2023-06-21T08:09:05.750Z,25.10
2023-06-21T08:11:35.784Z,25.20
2023-06-21T08:14:07.433Z,25.20
2023-06-21T08:16:38.236Z,25.30
2023-06-21T08:19:10.797Z,25.40
2023-06-21T08:21:46.081Z,25.40
2023-06-21T08:24:16.051Z,25.50
2023-06-21T08:26:46.985Z,25.50
2023-06-21T08:29:16.196Z,25.60
2023-06-21T08:31:47.275Z,25.70
2023-06-21T08:34:28.874Z,25.70
2023-06-21T08:37:02.217Z,25.80
2023-06-21T08:39:32.610Z,25.90
2023-06-21T08:42:03.913Z,26.00
2023-06-21T08:44:35.265Z,26.10
2023-06-21T08:47:10.495Z,26.20
2023-06-21T08:49:42.781Z,26.30
2023-06-21T08:52:18.907Z,26.40
2023-06-21T08:54:50.529Z,26.50
2023-06-21T08:57:22.752Z,26.60
2023-06-21T08:59:54.907Z,26.70
2023-06-21T09:02:31.956Z,26.80
2023-06-21T09:05:04.750Z,26.80
2023-06-21T09:07:35.777Z,26.90
2023-06-21T09:10:05.114Z,26.90
2023-06-21T09:12:35.418Z,26.90
2023-06-21T09:15:04.141Z,27.00
2023-06-21T09:17:32.159Z,27.00
2023-06-21T09:19:59.605Z,27.00
2023-06-21T09:22:28.210Z,27.10
2023-06-21T09:24:56.981Z,27.10
2023-06-21T09:27:24.447Z,27.20
2023-06-21T09:29:52.009Z,27.20
2023-06-21T09:32:19.491Z,27.20
2023-06-21T09:34:46.906Z,27.30
2023-06-21T09:37:33.266Z,27.40
2023-06-21T09:40:02.367Z,27.50
2023-06-21T09:42:30.126Z,27.50
2023-06-21T09:44:57.839Z,27.50
2023-06-21T09:47:31.022Z,27.50
2023-06-21T09:49:58.487Z,27.60
2023-06-21T09:52:26.234Z,27.70
2023-06-21T09:54:57.338Z,27.70
2023-06-21T09:57:29.792Z,27.70
2023-06-21T09:59:59.044Z,27.70
2023-06-21T10:02:26.992Z,27.80
2023-06-21T10:04:57.494Z,27.80
2023-06-21T10:07:27.608Z,27.80
2023-06-21T10:09:55.264Z,27.90
2023-06-21T10:12:23.418Z,27.90
2023-06-21T10:14:52.168Z,28.00
2023-06-21T10:17:19.964Z,28.00
2023-06-21T10:19:47.834Z,28.10
2023-06-21T10:22:18.970Z,28.00
2023-06-21T10:24:48.931Z,28.00
2023-06-21T10:27:17.820Z,28.10
2023-06-21T10:29:46.328Z,28.10
2023-06-21T10:32:16.111Z,28.10
2023-06-21T10:34:56.530Z,28.10
2023-06-21T10:37:33.319Z,28.20
2023-06-21T10:40:11.612Z,28.20
2023-06-21T10:42:40.323Z,28.30
2023-06-21T10:45:09.296Z,28.30
2023-06-21T10:47:39.552Z,28.40
2023-06-21T10:50:08.066Z,28.40
2023-06-21T10:52:35.859Z,28.40
2023-06-21T10:55:04.339Z,28.40
2023-06-21T10:57:34.793Z,28.40
2023-06-21T11:00:04.454Z,28.30
2023-06-21T11:02:32.025Z,28.30
2023-06-21T11:05:17.995Z,28.30
2023-06-21T11:07:55.142Z,28.30
2023-06-21T11:10:24.861Z,28.30
2023-06-21T11:12:56.254Z,28.30
2023-06-21T11:15:26.618Z,28.30
2023-06-21T11:18:00.238Z,28.40
2023-06-21T11:20:32.957Z,28.40
2023-06-21T11:23:02.071Z,28.50
2023-06-21T11:25:29.551Z,28.50
2023-06-21T11:28:21.984Z,28.60
2023-06-21T11:31:07.870Z,28.60
2023-06-21T11:33:55.472Z,28.70
2023-06-21T11:36:28.790Z,28.70
2023-06-21T11:39:20.301Z,28.70
2023-06-21T11:42:01.103Z,28.70
2023-06-21T11:44:32.862Z,28.60
2023-06-21T11:47:18.887Z,28.70
2023-06-21T11:49:48.721Z,28.70
2023-06-21T11:52:25.436Z,28.80
2023-06-21T11:54:53.033Z,28.70
2023-06-21T11:57:20.576Z,28.70
2023-06-21T11:59:49.540Z,28.60
2023-06-21T12:02:21.663Z,28.50
2023-06-21T12:04:51.546Z,28.50
2023-06-21T12:07:21.158Z,28.50
2023-06-21T12:09:53.410Z,28.50
2023-06-21T12:12:26.750Z,28.50
2023-06-21T12:14:57.829Z,28.50
2023-06-21T12:17:25.333Z,28.60
2023-06-21T12:19:52.772Z,28.60
2023-06-21T12:22:22.975Z,28.60
2023-06-21T12:24:53.610Z,28.70
2023-06-21T12:27:21.144Z,28.70
2023-06-21T12:29:50.484Z,28.70
2023-06-21T12:32:19.633Z,28.80
2023-06-21T12:34:47.287Z,28.90
2023-06-21T12:37:22.467Z,28.90
2023-06-21T12:39:51.931Z,29.00
2023-06-21T12:42:21.029Z,29.00
2023-06-21T12:44:49.093Z,29.10
2023-06-21T12:47:17.221Z,29.20
2023-06-21T12:49:48.750Z,29.20
2023-06-21T12:52:16.537Z,29.20
2023-06-21T12:54:55.411Z,29.20
2023-06-21T12:57:30.552Z,29.20
2023-06-21T12:59:58.065Z,29.20
2023-06-21T13:02:27.825Z,29.30
2023-06-21T13:04:56.473Z,29.40
2023-06-21T13:07:23.920Z,29.40
2023-06-21T13:09:51.809Z,29.40
2023-06-21T13:12:20.741Z,29.50
2023-06-21T13:14:48.287Z,29.60
2023-06-21T13:17:15.891Z,29.70
2023-06-21T13:19:44.668Z,29.70
2023-06-21T13:22:12.212Z,29.70
2023-06-21T13:24:39.745Z,29.80
2023-06-21T13:27:07.218Z,29.90
2023-06-21T13:29:36.016Z,29.90
2023-06-21T13:32:04.764Z,29.90
2023-06-21T13:34:32.622Z,30.00
2023-06-21T13:37:00.261Z,30.00
2023-06-21T13:39:27.950Z,30.10
2023-06-21T13:41:55.361Z,30.10
2023-06-21T13:44:22.813Z,30.10
2023-06-21T13:46:51.811Z,30.20
2023-06-21T13:49:21.763Z,30.30
2023-06-21T13:51:49.482Z,30.40
2023-06-21T13:54:16.845Z,30.40
2023-06-21T13:56:44.294Z,30.40
2023-06-21T13:59:11.801Z,30.40
2023-06-21T14:01:39.896Z,30.50
2023-06-21T14:04:08.793Z,30.50
2023-06-21T14:06:36.418Z,30.50
2023-06-21T14:09:03.953Z,30.50
2023-06-21T14:11:31.959Z,30.60
2023-06-21T14:13:59.423Z,30.70
2023-06-21T14:16:26.919Z,30.70
2023-06-21T14:18:55.683Z,30.70
2023-06-21T14:21:27.072Z,30.70
2023-06-21T14:23:54.557Z,30.70
2023-06-21T14:26:31.651Z,30.80
2023-06-21T14:28:59.209Z,30.70
2023-06-21T14:31:27.606Z,30.70
2023-06-21T14:33:55.857Z,30.80
2023-06-21T14:36:23.292Z,30.80
2023-06-21T14:38:52.421Z,30.70
2023-06-21T14:41:20.167Z,30.70
2023-06-21T14:43:47.849Z,30.80
2023-06-21T14:46:15.319Z,30.80
2023-06-21T14:48:43.047Z,30.80
2023-06-21T14:51:14.130Z,30.80
2023-06-21T14:53:42.147Z,30.80
2023-06-21T14:56:10.963Z,30.80
2023-06-21T14:58:38.799Z,30.80
2023-06-21T15:01:06.587Z,30.80
2023-06-21T15:03:34.431Z,30.70
2023-06-21T15:06:09.570Z,30.70
2023-06-21T15:08:37.061Z,30.70
2023-06-21T15:11:06.499Z,30.60
2023-06-21T15:13:36.798Z,30.50
2023-06-21T15:16:05.307Z,30.40
2023-06-21T15:18:39.614Z,30.40
2023-06-21T15:21:07.160Z,30.30
2023-06-21T15:26:31.695Z,30.20
2023-06-21T15:29:44.801Z,30.10
2023-06-21T15:32:14.740Z,30.10
2023-06-21T15:34:42.417Z,30.10
2023-06-21T15:37:09.809Z,30.00
2023-06-21T15:39:37.272Z,29.90
2023-06-21T15:42:12.133Z,29.90
2023-06-21T15:44:58.724Z,29.90
2023-06-21T15:47:27.686Z,29.80
2023-06-21T15:50:02.227Z,29.80
2023-06-21T15:52:29.703Z,29.80
2023-06-21T15:55:35.128Z,29.70
2023-06-21T15:58:57.367Z,29.60
2023-06-21T16:01:25.333Z,29.50
2023-06-21T16:03:54.365Z,29.60
2023-06-21T16:06:22.106Z,29.50
2023-06-21T16:08:57.509Z,29.50
2023-06-21T16:11:46.278Z,29.40
2023-06-21T16:14:13.829Z,29.40
2023-06-21T16:16:41.289Z,29.40
2023-06-21T16:19:10.092Z,29.30
2023-06-21T16:21:43.147Z,29.30
2023-06-21T16:24:18.723Z,29.30
2023-06-21T16:26:46.949Z,29.30
2023-06-21T16:29:14.710Z,29.30
2023-06-21T16:31:43.266Z,29.30
2023-06-21T16:34:12.265Z,29.30
2023-06-21T16:36:48.649Z,29.20
2023-06-21T16:39:22.713Z,29.30
2023-06-21T16:41:50.160Z,29.20
2023-06-21T16:44:17.649Z,29.20
2023-06-21T16:46:45.094Z,29.20
2023-06-21T16:49:55.409Z,29.20
2023-06-21T16:52:32.092Z,29.20
2023-06-21T16:55:00.102Z,29.20
2023-06-21T16:57:27.712Z,29.10
2023-06-21T16:59:55.245Z,29.00
2023-06-21T17:02:55.729Z,28.90
2023-06-21T17:05:54.433Z,28.90
2023-06-21T17:08:23.231Z,29.00
2023-06-21T17:10:50.696Z,28.90
2023-06-21T17:13:18.150Z,28.80
2023-06-21T17:15:53.805Z,28.90
2023-06-21T17:18:30.700Z,28.90
2023-06-21T17:21:02.936Z,28.80
2023-06-21T17:23:31.738Z,28.80
2023-06-21T17:25:59.284Z,28.80
2023-06-21T17:28:28.139Z,28.70
2023-06-21T17:31:02.949Z,28.70
2023-06-21T17:33:33.799Z,28.70
2023-06-21T17:36:01.393Z,28.70
2023-06-21T17:38:28.931Z,28.60
2023-06-21T17:40:57.749Z,28.60
2023-06-21T17:43:30.725Z,28.50
2023-06-21T17:46:44.720Z,28.50
2023-06-21T17:49:12.476Z,28.40
2023-06-21T17:51:40.012Z,28.30
2023-06-21T17:54:07.451Z,28.30
2023-06-21T17:56:49.433Z,28.30
2023-06-21T17:59:52.734Z,28.20
2023-06-21T18:02:21.891Z,28.10
2023-06-21T18:04:49.419Z,28.10
2023-06-21T18:07:17.283Z,28.00
2023-06-21T18:09:44.694Z,28.00
2023-06-21T18:12:17.255Z,27.90
2023-06-21T18:14:48.758Z,27.90
2023-06-21T18:17:17.088Z,27.90
2023-06-21T18:19:44.545Z,27.90
2023-06-21T18:22:14.016Z,27.80
2023-06-21T18:25:21.827Z,27.80
2023-06-21T18:27:54.203Z,27.80
2023-06-21T18:30:21.814Z,27.70
2023-06-21T18:32:49.402Z,27.70
2023-06-21T18:35:16.936Z,27.60
2023-06-21T18:38:09.997Z,27.60
2023-06-21T18:41:17.887Z,27.60
2023-06-21T18:43:47.177Z,27.60
2023-06-21T18:46:14.749Z,27.60
2023-06-21T18:48:42.522Z,27.60
2023-06-21T18:51:16.640Z,27.50
2023-06-21T18:53:52.748Z,27.50
2023-06-21T18:56:31.341Z,27.50
2023-06-21T18:59:01.234Z,27.40
2023-06-21T19:01:28.778Z,27.40
2023-06-21T19:03:57.846Z,27.40
2023-06-21T19:06:33.450Z,27.30
2023-06-21T19:09:21.493Z,27.30
2023-06-21T19:11:48.978Z,27.20
2023-06-21T19:14:17.791Z,27.20
2023-06-21T19:16:45.776Z,27.20
2023-06-21T19:19:29.514Z,27.10
2023-06-21T19:22:02.446Z,27.10
2023-06-21T19:24:30.317Z,27.00
2023-06-21T19:26:57.884Z,27.00
2023-06-21T19:29:26.705Z,27.00
2023-06-21T19:31:54.187Z,26.90
2023-06-21T19:34:38.135Z,26.90
2023-06-21T19:37:07.137Z,26.90
2023-06-21T19:39:35.831Z,26.80
2023-06-21T19:42:03.381Z,26.80
2023-06-21T19:44:32.200Z,26.70
2023-06-21T19:47:06.490Z,26.70
2023-06-21T19:49:39.001Z,26.60
2023-06-21T19:52:07.803Z,26.60
2023-06-21T19:54:35.340Z,26.50
2023-06-21T19:57:02.823Z,26.50
2023-06-21T20:00:31.296Z,26.50
2023-06-21T20:03:00.553Z,26.40
2023-06-21T20:05:28.298Z,26.30
2023-06-21T20:07:55.887Z,26.30
2023-06-21T20:10:23.514Z,26.20
2023-06-21T20:12:51.506Z,26.20
2023-06-21T20:15:21.034Z,26.20
2023-06-21T20:17:50.048Z,26.10
2023-06-21T20:20:18.479Z,26.10
2023-06-21T20:22:45.924Z,26.00
2023-06-21T20:25:14.826Z,26.00
2023-06-21T20:27:42.525Z,26.00
2023-06-21T20:30:10.817Z,25.90
2023-06-21T20:32:39.734Z,25.90
2023-06-21T20:35:09.067Z,25.90
2023-06-21T20:37:39.036Z,25.80
2023-06-21T20:40:08.763Z,25.80
2023-06-21T20:42:36.242Z,25.70
2023-06-21T20:45:04.311Z,25.70
2023-06-21T20:47:31.681Z,25.60
2023-06-21T20:50:00.388Z,25.60
2023-06-21T20:52:28.965Z,25.60
2023-06-21T20:54:56.443Z,25.50
2023-06-21T20:57:23.948Z,25.50
2023-06-21T20:59:51.405Z,25.40
2023-06-21T21:02:18.854Z,25.40
2023-06-21T21:04:46.321Z,25.40
2023-06-21T21:07:16.910Z,25.30
2023-06-21T21:09:44.387Z,25.30
2023-06-21T21:12:11.824Z,25.30
2023-06-21T21:14:39.310Z,25.20
2023-06-21T21:17:06.796Z,25.20
2023-06-21T21:19:34.296Z,25.10
2023-06-21T21:22:01.770Z,25.10
2023-06-21T21:24:30.848Z,25.10
2023-06-21T21:26:58.362Z,25.00
2023-06-21T21:29:25.842Z,25.00
2023-06-21T21:31:56.619Z,24.90
2023-06-21T21:34:24.865Z,24.80
2023-06-21T21:36:53.747Z,24.80
2023-06-21T21:39:21.348Z,24.80
2023-06-21T21:41:50.376Z,24.70
2023-06-21T21:44:18.026Z,24.70
2023-06-21T21:46:45.771Z,24.70
2023-06-21T21:49:13.442Z,24.60
2023-06-21T21:51:41.409Z,24.60
2023-06-21T21:54:09.273Z,24.50
2023-06-21T21:56:36.964Z,24.50
2023-06-21T21:59:05.855Z,24.50
2023-06-21T22:01:34.710Z,24.40
2023-06-21T22:04:03.074Z,24.40
2023-06-21T22:06:31.019Z,24.30
2023-06-21T22:08:59.115Z,24.30
2023-06-21T22:11:26.827Z,24.30
2023-06-21T22:14:02.484Z,24.20
2023-06-21T22:16:36.760Z,24.20
2023-06-21T22:19:06.630Z,24.10
2023-06-21T22:21:35.216Z,24.10
2023-06-21T22:24:05.090Z,24.10
2023-06-21T22:26:33.767Z,24.00
2023-06-21T22:29:02.226Z,24.00
2023-06-21T22:31:34.240Z,23.90
2023-06-21T22:34:04.402Z,23.90
2023-06-21T22:36:32.838Z,23.90
2023-06-21T22:39:05.500Z,23.80
2023-06-21T22:41:33.764Z,23.80
2023-06-21T22:44:04.352Z,23.80
2023-06-21T22:46:34.260Z,23.70
2023-06-21T22:49:04.754Z,23.70
2023-06-21T22:51:36.593Z,23.70
2023-06-21T22:54:05.715Z,23.60
2023-06-21T22:56:34.051Z,23.60
2023-06-21T22:59:04.643Z,23.60
2023-06-21T23:01:34.240Z,23.60
2023-06-21T23:04:02.730Z,23.60
2023-06-21T23:06:31.200Z,23.60
2023-06-21T23:09:04.019Z,23.60
2023-06-21T23:11:32.458Z,23.50
2023-06-21T23:14:00.889Z,23.50
2023-06-21T23:16:30.323Z,23.40
2023-06-21T23:19:01.245Z,23.40
2023-06-21T23:21:30.696Z,23.40
2023-06-21T23:24:05.446Z,23.40
2023-06-21T23:26:34.116Z,23.40
2023-06-21T23:29:02.488Z,23.30
2023-06-21T23:31:37.269Z,23.30
2023-06-21T23:34:07.284Z,23.30
2023-06-21T23:36:35.583Z,23.30
2023-06-21T23:39:04.684Z,23.20
2023-06-21T23:41:34.546Z,23.20
2023-06-21T23:44:02.945Z,23.20
2023-06-21T23:46:34.109Z,23.20
2023-06-21T23:49:03.916Z,23.20
2023-06-21T23:51:34.676Z,23.10
2023-06-21T23:54:02.993Z,23.10
2023-06-21T23:56:31.200Z,23.10
2023-06-21T23:58:59.568Z,23.00
